sensor_id;sensor_type;location;lat;lon;timestamp;temperature;humidity
39655;DHT22;25336;59.944;11.010;2023-06-26T00:01:31;20.20;53.40
39655;DHT22;25336;59.944;11.010;2023-06-26T00:04:00;20.20;53.70
39655;DHT22;25336;59.944;11.010;2023-06-26T00:06:27;20.20;55.00
39655;DHT22;25336;59.944;11.010;2023-06-26T00:08:56;20.10;54.20
39655;DHT22;25336;59.944;11.010;2023-06-26T00:11:24;20.00;54.40
39655;DHT22;25336;59.944;11.010;2023-06-26T00:13:52;20.00;54.20
39655;DHT22;25336;59.944;11.010;2023-06-26T00:16:18;20.00;54.70
39655;DHT22;25336;59.944;11.010;2023-06-26T00:18:43;20.00;54.50
39655;DHT22;25336;59.944;11.010;2023-06-26T00:21:09;19.90;54.60
39655;DHT22;25336;59.944;11.010;2023-06-26T00:23:34;19.90;54.80
39655;DHT22;25336;59.944;11.010;2023-06-26T00:26:03;19.80;55.00
39655;DHT22;25336;59.944;11.010;2023-06-26T00:28:29;18.90;54.80
39655;DHT22;25336;59.944;11.010;2023-06-26T00:30:55;19.80;55.40
39655;DHT22;25336;59.944;11.010;2023-06-26T00:33:20;19.70;55.60
39655;DHT22;25336;59.944;11.010;2023-06-26T00:35:46;19.70;55.90
39655;DHT22;25336;59.944;11.010;2023-06-26T00:38:11;19.60;56.20
39655;DHT22;25336;59.944;11.010;2023-06-26T00:40:37;19.90;56.50
39655;DHT22;25336;59.944;11.010;2023-06-26T00:43:03;19.60;56.70
39655;DHT22;25336;59.944;11.010;2023-06-26T00:45:28;19.50;57.00
39655;DHT22;25336;59.944;11.010;2023-06-26T00:47:54;19.50;57.60
39655;DHT22;25336;59.944;11.010;2023-06-26T00:50:20;19.50;58.00
39655;DHT22;25336;59.944;11.010;2023-06-26T00:52:46;19.40;58.20
39655;DHT22;25336;59.944;11.010;2023-06-26T00:55:12;19.40;58.40
39655;DHT22;25336;59.944;11.010;2023-06-26T00:57:38;19.40;58.50
39655;DHT22;25336;59.944;11.010;2023-06-26T01:00:04;19.40;58.60
39655;DHT22;25336;59.944;11.010;2023-06-26T01:02:30;19.30;58.80
39655;DHT22;25336;59.944;11.010;2023-06-26T01:05:03;19.30;59.00
39655;DHT22;25336;59.944;11.010;2023-06-26T01:07:32;19.30;59.50
39655;DHT22;25336;59.944;11.010;2023-06-26T01:10:03;19.30;59.20
39655;DHT22;25336;59.944;11.010;2023-06-26T01:12:30;19.20;59.40
39655;DHT22;25336;59.944;11.010;2023-06-26T01:14:55;19.20;60.30
39655;DHT22;25336;59.944;11.010;2023-06-26T01:17:21;19.20;59.80
39655;DHT22;25336;59.944;11.010;2023-06-26T01:19:48;19.20;60.00
39655;DHT22;25336;59.944;11.010;2023-06-26T01:22:37;19.10;60.30
39655;DHT22;25336;59.944;11.010;2023-06-26T01:25:41;19.20;61.00
39655;DHT22;25336;59.944;11.010;2023-06-26T01:28:13;19.10;62.20
39655;DHT22;25336;59.944;11.010;2023-06-26T01:30:42;19.20;61.40
39655;DHT22;25336;59.944;11.010;2023-06-26T01:33:10;19.20;60.90
39655;DHT22;25336;59.944;11.010;2023-06-26T01:35:36;19.10;60.70
39655;DHT22;25336;59.944;11.010;2023-06-26T01:38:31;19.20;61.00
39655;DHT22;25336;59.944;11.010;2023-06-26T01:40:57;19.20;63.40
39655;DHT22;25336;59.944;11.010;2023-06-26T01:45:54;19.30;61.80
39655;DHT22;25336;59.944;11.010;2023-06-26T01:48:27;19.30;62.20
39655;DHT22;25336;59.944;11.010;2023-06-26T01:50:57;19.30;62.20
39655;DHT22;25336;59.944;11.010;2023-06-26T01:53:25;19.90;62.60
39655;DHT22;25336;59.944;11.010;2023-06-26T01:56:00;19.40;62.10
39655;DHT22;25336;59.944;11.010;2023-06-26T01:58:27;19.40;62.70
39655;DHT22;25336;59.944;11.010;2023-06-26T02:00:53;19.40;62.20
39655;DHT22;25336;59.944;11.010;2023-06-26T02:03:19;19.40;62.30
39655;DHT22;25336;59.944;11.010;2023-06-26T02:05:45;18.80;62.00
39655;DHT22;25336;59.944;11.010;2023-06-26T02:08:15;19.40;62.30
39655;DHT22;25336;59.944;11.010;2023-06-26T02:10:41;18.80;62.30
39655;DHT22;25336;59.944;11.010;2023-06-26T02:13:06;19.40;62.00
39655;DHT22;25336;59.944;11.010;2023-06-26T02:15:32;20.00;62.40
39655;DHT22;25336;59.944;11.010;2023-06-26T02:17:57;19.40;62.00
39655;DHT22;25336;59.944;11.010;2023-06-26T02:20:23;19.40;61.90
39655;DHT22;25336;59.944;11.010;2023-06-26T02:22:49;19.40;61.80
39655;DHT22;25336;59.944;11.010;2023-06-26T02:25:15;19.80;62.00
39655;DHT22;25336;59.944;11.010;2023-06-26T02:27:40;19.40;61.70
39655;DHT22;25336;59.944;11.010;2023-06-26T02:30:08;19.30;61.60
39655;DHT22;25336;59.944;11.010;2023-06-26T02:32:34;19.30;61.60
39655;DHT22;25336;59.944;11.010;2023-06-26T02:35:00;19.30;61.60
39655;DHT22;25336;59.944;11.010;2023-06-26T02:37:26;19.30;61.70
39655;DHT22;25336;59.944;11.010;2023-06-26T02:39:51;19.20;61.60
39655;DHT22;25336;59.944;11.010;2023-06-26T02:42:17;19.20;61.70
39655;DHT22;25336;59.944;11.010;2023-06-26T02:44:42;19.70;62.00
39655;DHT22;25336;59.944;11.010;2023-06-26T02:47:08;19.20;61.70
39655;DHT22;25336;59.944;11.010;2023-06-26T02:49:33;19.10;61.80
39655;DHT22;25336;59.944;11.010;2023-06-26T02:51:59;19.20;62.00
39655;DHT22;25336;59.944;11.010;2023-06-26T02:54:25;19.10;62.10
39655;DHT22;25336;59.944;11.010;2023-06-26T02:56:50;19.10;62.10
39655;DHT22;25336;59.944;11.010;2023-06-26T02:59:16;19.20;62.30
39655;DHT22;25336;59.944;11.010;2023-06-26T03:01:42;19.10;62.30
39655;DHT22;25336;59.944;11.010;2023-06-26T03:04:07;19.10;62.50
39655;DHT22;25336;59.944;11.010;2023-06-26T03:06:33;19.20;62.70
39655;DHT22;25336;59.944;11.010;2023-06-26T03:08:59;19.20;63.00
39655;DHT22;25336;59.944;11.010;2023-06-26T03:11:25;19.20;63.10
39655;DHT22;25336;59.944;11.010;2023-06-26T03:13:50;19.30;63.20
39655;DHT22;25336;59.944;11.010;2023-06-26T03:16:16;19.40;63.30
39655;DHT22;25336;59.944;11.010;2023-06-26T03:18:43;19.40;63.20
39655;DHT22;25336;59.944;11.010;2023-06-26T03:21:08;19.40;62.90
39655;DHT22;25336;59.944;11.010;2023-06-26T03:23:34;19.50;62.80
39655;DHT22;25336;59.944;11.010;2023-06-26T03:26:00;19.50;62.40
39655;DHT22;25336;59.944;11.010;2023-06-26T03:28:25;19.60;62.40
39655;DHT22;25336;59.944;11.010;2023-06-26T03:30:51;19.60;62.30
39655;DHT22;25336;59.944;11.010;2023-06-26T03:33:17;19.60;62.30
39655;DHT22;25336;59.944;11.010;2023-06-26T03:35:42;20.00;62.40
39655;DHT22;25336;59.944;11.010;2023-06-26T03:38:08;19.70;62.20
39655;DHT22;25336;59.944;11.010;2023-06-26T03:40:34;19.70;62.10
39655;DHT22;25336;59.944;11.010;2023-06-26T03:42:59;19.70;62.00
39655;DHT22;25336;59.944;11.010;2023-06-26T03:45:25;19.80;62.00
39655;DHT22;25336;59.944;11.010;2023-06-26T03:47:50;19.80;61.90
39655;DHT22;25336;59.944;11.010;2023-06-26T03:50:17;19.90;61.90
39655;DHT22;25336;59.944;11.010;2023-06-26T03:52:42;19.90;61.70
39655;DHT22;25336;59.944;11.010;2023-06-26T03:55:08;20.00;61.50
39655;DHT22;25336;59.944;11.010;2023-06-26T03:57:34;20.00;61.40
39655;DHT22;25336;59.944;11.010;2023-06-26T04:00:00;20.00;61.10
39655;DHT22;25336;59.944;11.010;2023-06-26T04:02:25;20.10;61.00
39655;DHT22;25336;59.944;11.010;2023-06-26T04:04:51;20.10;61.00
39655;DHT22;25336;59.944;11.010;2023-06-26T04:07:18;20.10;60.90
39655;DHT22;25336;59.944;11.010;2023-06-26T04:09:44;20.10;60.70
39655;DHT22;25336;59.944;11.010;2023-06-26T04:12:09;19.30;60.10
39655;DHT22;25336;59.944;11.010;2023-06-26T04:14:35;20.20;60.70
39655;DHT22;25336;59.944;11.010;2023-06-26T04:17:01;20.60;62.00
39655;DHT22;25336;59.944;11.010;2023-06-26T04:19:30;21.00;61.60
39655;DHT22;25336;59.944;11.010;2023-06-26T04:21:56;20.30;61.10
39655;DHT22;25336;59.944;11.010;2023-06-26T04:24:22;20.40;61.10
39655;DHT22;25336;59.944;11.010;2023-06-26T04:26:47;20.40;60.90
39655;DHT22;25336;59.944;11.010;2023-06-26T04:29:13;20.40;60.80
39655;DHT22;25336;59.944;11.010;2023-06-26T04:31:39;20.50;60.70
39655;DHT22;25336;59.944;11.010;2023-06-26T04:34:05;20.60;60.50
39655;DHT22;25336;59.944;11.010;2023-06-26T04:36:31;21.70;61.00
39655;DHT22;25336;59.944;11.010;2023-06-26T04:38:59;20.70;60.20
39655;DHT22;25336;59.944;11.010;2023-06-26T04:41:25;20.70;59.80
39655;DHT22;25336;59.944;11.010;2023-06-26T04:43:51;20.80;59.80
39655;DHT22;25336;59.944;11.010;2023-06-26T04:46:16;21.10;59.90
39655;DHT22;25336;59.944;11.010;2023-06-26T04:48:42;20.80;59.50
39655;DHT22;25336;59.944;11.010;2023-06-26T04:51:10;20.90;59.50
39655;DHT22;25336;59.944;11.010;2023-06-26T04:53:35;20.90;59.40
39655;DHT22;25336;59.944;11.010;2023-06-26T04:56:01;20.90;59.10
39655;DHT22;25336;59.944;11.010;2023-06-26T04:58:27;21.00;59.00
39655;DHT22;25336;59.944;11.010;2023-06-26T05:00:52;21.00;59.00
39655;DHT22;25336;59.944;11.010;2023-06-26T05:03:18;21.00;58.80
39655;DHT22;25336;59.944;11.010;2023-06-26T05:05:44;21.00;58.80
39655;DHT22;25336;59.944;11.010;2023-06-26T05:08:17;21.00;58.60
39655;DHT22;25336;59.944;11.010;2023-06-26T05:10:43;21.00;58.70
39655;DHT22;25336;59.944;11.010;2023-06-26T05:13:09;21.10;58.60
39655;DHT22;25336;59.944;11.010;2023-06-26T05:15:36;21.00;58.30
39655;DHT22;25336;59.944;11.010;2023-06-26T05:18:01;21.00;58.20
39655;DHT22;25336;59.944;11.010;2023-06-26T05:20:27;21.00;58.20
39655;DHT22;25336;59.944;11.010;2023-06-26T05:22:53;21.10;58.20
39655;DHT22;25336;59.944;11.010;2023-06-26T05:25:19;21.10;58.20
39655;DHT22;25336;59.944;11.010;2023-06-26T05:27:47;21.10;58.30
39655;DHT22;25336;59.944;11.010;2023-06-26T05:30:13;21.10;58.40
39655;DHT22;25336;59.944;11.010;2023-06-26T05:32:40;21.10;58.60
39655;DHT22;25336;59.944;11.010;2023-06-26T05:35:07;21.10;58.60
39655;DHT22;25336;59.944;11.010;2023-06-26T05:37:33;21.10;58.60
39655;DHT22;25336;59.944;11.010;2023-06-26T05:40:00;21.10;58.70
39655;DHT22;25336;59.944;11.010;2023-06-26T05:42:29;21.10;58.60
39655;DHT22;25336;59.944;11.010;2023-06-26T05:44:55;21.20;58.70
39655;DHT22;25336;59.944;11.010;2023-06-26T05:47:20;21.20;58.40
39655;DHT22;25336;59.944;11.010;2023-06-26T05:49:46;21.30;58.30
39655;DHT22;25336;59.944;11.010;2023-06-26T05:52:12;21.30;58.30
39655;DHT22;25336;59.944;11.010;2023-06-26T05:54:38;21.30;58.30
39655;DHT22;25336;59.944;11.010;2023-06-26T05:57:04;21.30;58.30
39655;DHT22;25336;59.944;11.010;2023-06-26T05:59:31;21.40;58.30
39655;DHT22;25336;59.944;11.010;2023-06-26T06:01:57;21.40;59.00
39655;DHT22;25336;59.944;11.010;2023-06-26T06:04:23;21.40;58.20
39655;DHT22;25336;59.944;11.010;2023-06-26T06:06:48;21.50;58.20
39655;DHT22;25336;59.944;11.010;2023-06-26T06:09:14;21.50;58.10
39655;DHT22;25336;59.944;11.010;2023-06-26T06:11:40;21.60;58.00
39655;DHT22;25336;59.944;11.010;2023-06-26T06:14:05;21.60;58.00
39655;DHT22;25336;59.944;11.010;2023-06-26T06:16:31;21.70;57.90
39655;DHT22;25336;59.944;11.010;2023-06-26T06:18:56;21.70;57.70
39655;DHT22;25336;59.944;11.010;2023-06-26T06:21:22;22.10;57.80
39655;DHT22;25336;59.944;11.010;2023-06-26T06:23:47;21.70;57.70
39655;DHT22;25336;59.944;11.010;2023-06-26T06:26:13;21.80;57.70
39655;DHT22;25336;59.944;11.010;2023-06-26T06:28:39;21.80;57.70
39655;DHT22;25336;59.944;11.010;2023-06-26T06:31:05;21.80;57.50
39655;DHT22;25336;59.944;11.010;2023-06-26T06:33:31;21.90;57.40
39655;DHT22;25336;59.944;11.010;2023-06-26T06:35:56;22.00;57.40
39655;DHT22;25336;59.944;11.010;2023-06-26T06:38:22;22.00;57.40
39655;DHT22;25336;59.944;11.010;2023-06-26T06:40:48;22.00;57.20
39655;DHT22;25336;59.944;11.010;2023-06-26T06:43:13;22.10;57.10
39655;DHT22;25336;59.944;11.010;2023-06-26T06:45:39;22.10;57.00
39655;DHT22;25336;59.944;11.010;2023-06-26T06:48:05;22.60;57.30
39655;DHT22;25336;59.944;11.010;2023-06-26T06:50:31;22.10;57.00
39655;DHT22;25336;59.944;11.010;2023-06-26T06:52:56;22.20;57.10
39655;DHT22;25336;59.944;11.010;2023-06-26T06:55:22;22.20;57.00
39655;DHT22;25336;59.944;11.010;2023-06-26T06:57:49;22.30;56.90
39655;DHT22;25336;59.944;11.010;2023-06-26T07:00:16;22.40;56.90
39655;DHT22;25336;59.944;11.010;2023-06-26T07:02:45;22.50;56.80
39655;DHT22;25336;59.944;11.010;2023-06-26T07:05:12;22.50;56.30
39655;DHT22;25336;59.944;11.010;2023-06-26T07:07:38;22.60;56.30
39655;DHT22;25336;59.944;11.010;2023-06-26T07:10:06;22.70;56.00
39655;DHT22;25336;59.944;11.010;2023-06-26T07:12:33;22.70;55.80
39655;DHT22;25336;59.944;11.010;2023-06-26T07:15:00;23.20;55.90
39655;DHT22;25336;59.944;11.010;2023-06-26T07:17:26;22.80;55.60
39655;DHT22;25336;59.944;11.010;2023-06-26T07:19:52;22.90;55.80
39655;DHT22;25336;59.944;11.010;2023-06-26T07:22:17;23.00;55.40
39655;DHT22;25336;59.944;11.010;2023-06-26T07:24:49;23.50;55.70
39655;DHT22;25336;59.944;11.010;2023-06-26T07:27:15;23.20;55.20
39655;DHT22;25336;59.944;11.010;2023-06-26T07:29:41;23.20;54.80
39655;DHT22;25336;59.944;11.010;2023-06-26T07:32:07;23.30;54.60
39655;DHT22;25336;59.944;11.010;2023-06-26T07:34:33;23.30;54.50
39655;DHT22;25336;59.944;11.010;2023-06-26T07:36:59;23.40;54.30
39655;DHT22;25336;59.944;11.010;2023-06-26T07:39:25;23.50;54.00
39655;DHT22;25336;59.944;11.010;2023-06-26T07:41:50;23.50;53.90
39655;DHT22;25336;59.944;11.010;2023-06-26T07:44:16;23.60;53.80
39655;DHT22;25336;59.944;11.010;2023-06-26T07:46:42;23.70;54.10
39655;DHT22;25336;59.944;11.010;2023-06-26T07:49:07;23.70;53.80
39655;DHT22;25336;59.944;11.010;2023-06-26T07:51:33;23.80;54.10
39655;DHT22;25336;59.944;11.010;2023-06-26T07:53:58;23.80;54.40
39655;DHT22;25336;59.944;11.010;2023-06-26T07:56:24;23.90;54.50
39655;DHT22;25336;59.944;11.010;2023-06-26T07:58:50;24.00;54.30
39655;DHT22;25336;59.944;11.010;2023-06-26T08:01:15;24.00;54.10
39655;DHT22;25336;59.944;11.010;2023-06-26T08:03:41;24.10;53.80
39655;DHT22;25336;59.944;11.010;2023-06-26T08:06:06;24.10;53.60
39655;DHT22;25336;59.944;11.010;2023-06-26T08:08:32;24.20;53.60
39655;DHT22;25336;59.944;11.010;2023-06-26T08:10:58;24.30;53.70
39655;DHT22;25336;59.944;11.010;2023-06-26T08:13:23;24.30;53.50
39655;DHT22;25336;59.944;11.010;2023-06-26T08:15:49;24.90;53.80
39655;DHT22;25336;59.944;11.010;2023-06-26T08:18:14;24.40;53.40
39655;DHT22;25336;59.944;11.010;2023-06-26T08:20:40;24.50;53.10
39655;DHT22;25336;59.944;11.010;2023-06-26T08:23:06;24.60;53.10
39655;DHT22;25336;59.944;11.010;2023-06-26T08:25:32;24.70;52.90
39655;DHT22;25336;59.944;11.010;2023-06-26T08:27:57;24.70;52.70
39655;DHT22;25336;59.944;11.010;2023-06-26T08:30:23;24.80;52.80
39655;DHT22;25336;59.944;11.010;2023-06-26T08:32:54;24.80;52.60
39655;DHT22;25336;59.944;11.010;2023-06-26T08:35:20;24.90;52.50
39655;DHT22;25336;59.944;11.010;2023-06-26T08:37:45;25.30;52.60
39655;DHT22;25336;59.944;11.010;2023-06-26T08:40:12;25.00;52.40
39655;DHT22;25336;59.944;11.010;2023-06-26T08:42:38;25.00;52.10
39655;DHT22;25336;59.944;11.010;2023-06-26T08:45:03;25.00;51.50
39655;DHT22;25336;59.944;11.010;2023-06-26T08:47:30;25.10;51.60
39655;DHT22;25336;59.944;11.010;2023-06-26T08:50:13;25.10;51.10
39655;DHT22;25336;59.944;11.010;2023-06-26T08:55:10;25.20;50.50
39655;DHT22;25336;59.944;11.010;2023-06-26T08:57:37;25.20;50.20
39655;DHT22;25336;59.944;11.010;2023-06-26T09:00:03;25.30;50.00
39655;DHT22;25336;59.944;11.010;2023-06-26T09:02:29;25.40;49.60
39655;DHT22;25336;59.944;11.010;2023-06-26T09:04:55;26.20;49.80
39655;DHT22;25336;59.944;11.010;2023-06-26T09:07:21;25.70;49.60
39655;DHT22;25336;59.944;11.010;2023-06-26T09:09:46;25.60;49.40
39655;DHT22;25336;59.944;11.010;2023-06-26T09:12:13;25.60;49.00
39655;DHT22;25336;59.944;11.010;2023-06-26T09:14:39;25.70;48.80
39655;DHT22;25336;59.944;11.010;2023-06-26T09:17:05;25.70;48.70
39655;DHT22;25336;59.944;11.010;2023-06-26T09:19:30;26.30;49.30
39655;DHT22;25336;59.944;11.010;2023-06-26T09:21:56;25.90;49.20
39655;DHT22;25336;59.944;11.010;2023-06-26T09:24:22;26.50;50.00
39655;DHT22;25336;59.944;11.010;2023-06-26T09:26:48;26.50;49.20
39655;DHT22;25336;59.944;11.010;2023-06-26T09:29:15;26.20;48.40
39655;DHT22;25336;59.944;11.010;2023-06-26T09:31:43;26.30;48.10
39655;DHT22;25336;59.944;11.010;2023-06-26T09:34:09;26.80;48.30
39655;DHT22;25336;59.944;11.010;2023-06-26T09:36:36;26.60;48.00
39655;DHT22;25336;59.944;11.010;2023-06-26T09:39:05;26.70;47.70
39655;DHT22;25336;59.944;11.010;2023-06-26T09:41:36;26.80;47.30
39655;DHT22;25336;59.944;11.010;2023-06-26T09:44:03;26.90;47.40
39655;DHT22;25336;59.944;11.010;2023-06-26T09:46:30;27.00;46.70
39655;DHT22;25336;59.944;11.010;2023-06-26T09:49:02;27.20;46.40
39655;DHT22;25336;59.944;11.010;2023-06-26T09:51:35;27.30;46.20
39655;DHT22;25336;59.944;11.010;2023-06-26T09:54:02;27.40;46.70
39655;DHT22;25336;59.944;11.010;2023-06-26T09:56:29;27.60;45.90
39655;DHT22;25336;59.944;11.010;2023-06-26T09:59:02;27.70;45.50
39655;DHT22;25336;59.944;11.010;2023-06-26T10:01:28;27.90;44.40
39655;DHT22;25336;59.944;11.010;2023-06-26T10:03:54;28.00;44.50
39655;DHT22;25336;59.944;11.010;2023-06-26T10:06:27;28.10;43.90
39655;DHT22;25336;59.944;11.010;2023-06-26T10:08:54;28.20;43.80
39655;DHT22;25336;59.944;11.010;2023-06-26T10:11:21;28.30;43.40
39655;DHT22;25336;59.944;11.010;2023-06-26T10:13:51;28.40;42.90
39655;DHT22;25336;59.944;11.010;2023-06-26T10:16:23;28.50;42.60
39655;DHT22;25336;59.944;11.010;2023-06-26T10:19:00;28.60;42.20
39655;DHT22;25336;59.944;11.010;2023-06-26T10:21:27;28.60;41.50
39655;DHT22;25336;59.944;11.010;2023-06-26T10:23:56;28.70;41.70
39655;DHT22;25336;59.944;11.010;2023-06-26T10:26:22;28.70;41.80
39655;DHT22;25336;59.944;11.010;2023-06-26T10:28:51;28.80;41.80
39655;DHT22;25336;59.944;11.010;2023-06-26T10:31:20;28.90;41.70
39655;DHT22;25336;59.944;11.010;2023-06-26T10:33:48;28.90;41.70
39655;DHT22;25336;59.944;11.010;2023-06-26T10:36:34;29.00;41.20
39655;DHT22;25336;59.944;11.010;2023-06-26T10:39:05;29.10;40.50
39655;DHT22;25336;59.944;11.010;2023-06-26T10:41:41;29.10;39.90
39655;DHT22;25336;59.944;11.010;2023-06-26T10:44:16;29.20;40.50
39655;DHT22;25336;59.944;11.010;2023-06-26T10:46:52;29.30;40.40
39655;DHT22;25336;59.944;11.010;2023-06-26T10:49:25;29.40;39.80
39655;DHT22;25336;59.944;11.010;2023-06-26T10:51:51;30.00;40.30
39655;DHT22;25336;59.944;11.010;2023-06-26T10:54:18;29.50;40.00
39655;DHT22;25336;59.944;11.010;2023-06-26T10:56:49;29.60;40.30
39655;DHT22;25336;59.944;11.010;2023-06-26T10:59:20;29.60;41.10
39655;DHT22;25336;59.944;11.010;2023-06-26T11:01:57;29.70;40.50
39655;DHT22;25336;59.944;11.010;2023-06-26T11:04:40;29.70;39.60
39655;DHT22;25336;59.944;11.010;2023-06-26T11:07:21;29.80;38.90
39655;DHT22;25336;59.944;11.010;2023-06-26T11:09:53;29.90;39.10
39655;DHT22;25336;59.944;11.010;2023-06-26T11:12:39;29.90;38.90
39655;DHT22;25336;59.944;11.010;2023-06-26T11:15:14;30.00;38.90
39655;DHT22;25336;59.944;11.010;2023-06-26T11:17:41;30.10;38.90
39655;DHT22;25336;59.944;11.010;2023-06-26T11:20:09;30.10;39.10
39655;DHT22;25336;59.944;11.010;2023-06-26T11:22:36;30.20;38.70
39655;DHT22;25336;59.944;11.010;2023-06-26T11:25:03;30.20;38.80
39655;DHT22;25336;59.944;11.010;2023-06-26T11:27:37;30.30;38.50
39655;DHT22;25336;59.944;11.010;2023-06-26T11:30:04;30.40;38.30
39655;DHT22;25336;59.944;11.010;2023-06-26T11:32:30;30.50;38.40
39655;DHT22;25336;59.944;11.010;2023-06-26T11:34:58;30.60;37.90
39655;DHT22;25336;59.944;11.010;2023-06-26T11:37:24;30.70;37.70
39655;DHT22;25336;59.944;11.010;2023-06-26T11:39:50;30.80;37.40
39655;DHT22;25336;59.944;11.010;2023-06-26T11:42:17;30.90;37.00
39655;DHT22;25336;59.944;11.010;2023-06-26T11:44:43;30.90;36.40
39655;DHT22;25336;59.944;11.010;2023-06-26T11:47:16;31.00;36.40
39655;DHT22;25336;59.944;11.010;2023-06-26T11:49:43;31.10;35.90
39655;DHT22;25336;59.944;11.010;2023-06-26T11:52:09;31.20;36.00
39655;DHT22;25336;59.944;11.010;2023-06-26T11:54:35;31.20;35.10
39655;DHT22;25336;59.944;11.010;2023-06-26T11:57:00;31.30;35.30
39655;DHT22;25336;59.944;11.010;2023-06-26T11:59:39;31.40;35.30
39655;DHT22;25336;59.944;11.010;2023-06-26T12:02:07;31.50;34.90
39655;DHT22;25336;59.944;11.010;2023-06-26T12:04:33;31.50;34.70
39655;DHT22;25336;59.944;11.010;2023-06-26T12:07:01;31.60;34.80
39655;DHT22;25336;59.944;11.010;2023-06-26T12:09:29;31.70;34.20
39655;DHT22;25336;59.944;11.010;2023-06-26T12:11:55;31.80;34.20
39655;DHT22;25336;59.944;11.010;2023-06-26T12:14:22;31.80;34.10
39655;DHT22;25336;59.944;11.010;2023-06-26T12:16:48;31.90;33.90
39655;DHT22;25336;59.944;11.010;2023-06-26T12:19:14;32.00;33.40
39655;DHT22;25336;59.944;11.010;2023-06-26T12:24:16;31.80;33.20
39655;DHT22;25336;59.944;11.010;2023-06-26T12:26:44;32.10;32.90
39655;DHT22;25336;59.944;11.010;2023-06-26T12:29:14;32.20;32.20
39655;DHT22;25336;59.944;11.010;2023-06-26T12:31:45;32.20;31.80
39655;DHT22;25336;59.944;11.010;2023-06-26T12:34:17;32.20;31.40
39655;DHT22;25336;59.944;11.010;2023-06-26T12:36:48;32.20;31.30
39655;DHT22;25336;59.944;11.010;2023-06-26T12:39:18;32.10;31.50
39655;DHT22;25336;59.944;11.010;2023-06-26T12:41:56;32.60;31.90
39655;DHT22;25336;59.944;11.010;2023-06-26T12:44:25;32.00;30.70
39655;DHT22;25336;59.944;11.010;2023-06-26T12:46:55;32.00;31.70
39655;DHT22;25336;59.944;11.010;2023-06-26T12:49:20;31.90;31.10
39655;DHT22;25336;59.944;11.010;2023-06-26T12:51:53;31.80;31.20
39655;DHT22;25336;59.944;11.010;2023-06-26T12:54:20;31.70;31.30
39655;DHT22;25336;59.944;11.010;2023-06-26T12:56:45;31.70;31.20
39655;DHT22;25336;59.944;11.010;2023-06-26T12:59:11;31.60;30.90
39655;DHT22;25336;59.944;11.010;2023-06-26T13:01:36;31.60;31.00
39655;DHT22;25336;59.944;11.010;2023-06-26T13:04:02;31.60;30.70
39655;DHT22;25336;59.944;11.010;2023-06-26T13:06:29;31.50;30.60
39655;DHT22;25336;59.944;11.010;2023-06-26T13:08:54;31.60;30.90
39655;DHT22;25336;59.944;11.010;2023-06-26T13:11:20;31.60;30.60
39655;DHT22;25336;59.944;11.010;2023-06-26T13:13:46;31.60;30.20
39655;DHT22;25336;59.944;11.010;2023-06-26T13:16:12;31.70;30.70
39655;DHT22;25336;59.944;11.010;2023-06-26T13:18:38;31.70;30.00
39655;DHT22;25336;59.944;11.010;2023-06-26T13:21:04;32.00;30.30
39655;DHT22;25336;59.944;11.010;2023-06-26T13:23:29;31.80;30.40
39655;DHT22;25336;59.944;11.010;2023-06-26T13:25:55;31.80;30.30
39655;DHT22;25336;59.944;11.010;2023-06-26T13:28:21;31.80;30.30
39655;DHT22;25336;59.944;11.010;2023-06-26T13:30:46;31.90;30.40
39655;DHT22;25336;59.944;11.010;2023-06-26T13:33:12;31.90;30.20
39655;DHT22;25336;59.944;11.010;2023-06-26T13:35:37;31.90;30.00
39655;DHT22;25336;59.944;11.010;2023-06-26T13:38:03;31.90;30.30
39655;DHT22;25336;59.944;11.010;2023-06-26T13:40:28;31.90;30.10
39655;DHT22;25336;59.944;11.010;2023-06-26T13:42:54;31.90;29.80
39655;DHT22;25336;59.944;11.010;2023-06-26T13:45:20;31.90;29.20
39655;DHT22;25336;59.944;11.010;2023-06-26T13:47:45;31.80;29.60
39655;DHT22;25336;59.944;11.010;2023-06-26T13:50:11;31.90;29.60
39655;DHT22;25336;59.944;11.010;2023-06-26T13:52:37;31.90;29.50
39655;DHT22;25336;59.944;11.010;2023-06-26T13:55:02;31.90;29.10
39655;DHT22;25336;59.944;11.010;2023-06-26T13:57:31;31.90;28.70
39655;DHT22;25336;59.944;11.010;2023-06-26T13:59:57;31.90;28.30
39655;DHT22;25336;59.944;11.010;2023-06-26T14:02:23;31.90;29.20
39655;DHT22;25336;59.944;11.010;2023-06-26T14:04:49;32.00;30.70
39655;DHT22;25336;59.944;11.010;2023-06-26T14:07:14;32.00;31.40
39655;DHT22;25336;59.944;11.010;2023-06-26T14:09:40;31.90;31.90
39655;DHT22;25336;59.944;11.010;2023-06-26T14:12:07;31.90;32.50
39655;DHT22;25336;59.944;11.010;2023-06-26T14:14:32;31.90;32.70
39655;DHT22;25336;59.944;11.010;2023-06-26T14:16:58;31.90;32.80
39655;DHT22;25336;59.944;11.010;2023-06-26T14:19:24;31.90;32.70
39655;DHT22;25336;59.944;11.010;2023-06-26T14:21:52;31.90;32.90
39655;DHT22;25336;59.944;11.010;2023-06-26T14:24:17;31.80;33.10
39655;DHT22;25336;59.944;11.010;2023-06-26T14:26:43;31.70;33.10
39655;DHT22;25336;59.944;11.010;2023-06-26T14:29:08;31.70;33.20
39655;DHT22;25336;59.944;11.010;2023-06-26T14:31:34;31.60;33.40
39655;DHT22;25336;59.944;11.010;2023-06-26T14:34:00;31.50;33.50
39655;DHT22;25336;59.944;11.010;2023-06-26T14:36:25;31.40;33.70
39655;DHT22;25336;59.944;11.010;2023-06-26T14:38:52;31.40;34.00
39655;DHT22;25336;59.944;11.010;2023-06-26T14:41:18;31.30;33.90
39655;DHT22;25336;59.944;11.010;2023-06-26T14:43:43;31.50;34.10
39655;DHT22;25336;59.944;11.010;2023-06-26T14:46:11;31.10;34.30
39655;DHT22;25336;59.944;11.010;2023-06-26T14:48:36;30.90;34.50
39655;DHT22;25336;59.944;11.010;2023-06-26T14:51:02;30.70;34.80
39655;DHT22;25336;59.944;11.010;2023-06-26T14:53:27;30.60;35.10
39655;DHT22;25336;59.944;11.010;2023-06-26T14:55:53;30.40;35.40
39655;DHT22;25336;59.944;11.010;2023-06-26T14:58:19;30.30;35.90
39655;DHT22;25336;59.944;11.010;2023-06-26T15:00:44;30.20;36.10
39655;DHT22;25336;59.944;11.010;2023-06-26T15:03:10;30.00;36.00
39655;DHT22;25336;59.944;11.010;2023-06-26T15:05:35;30.30;36.50
39655;DHT22;25336;59.944;11.010;2023-06-26T15:08:01;29.70;36.50
39655;DHT22;25336;59.944;11.010;2023-06-26T15:10:27;29.50;36.60
39655;DHT22;25336;59.944;11.010;2023-06-26T15:12:52;29.40;37.20
39655;DHT22;25336;59.944;11.010;2023-06-26T15:15:19;29.40;38.10
39655;DHT22;25336;59.944;11.010;2023-06-26T15:17:44;29.10;38.60
39655;DHT22;25336;59.944;11.010;2023-06-26T15:20:10;28.80;39.10
39655;DHT22;25336;59.944;11.010;2023-06-26T15:22:36;28.60;39.70